createdAt,value
2017-05-18T00:00:27.500Z,3.72
2017-05-18T00:02:54.255Z,4.72
2017-05-18T00:05:21.846Z,4.84
2017-05-18T00:07:48.599Z,4.90
2017-05-18T00:10:15.340Z,4.08
2017-05-18T00:12:43.806Z,4.92
2017-05-18T00:15:10.595Z,4.70
2017-05-18T00:17:38.281Z,4.50
2017-05-18T00:20:05.608Z,4.76
2017-05-18T00:22:33.062Z,5.76
2017-05-18T00:24:59.808Z,4.70
2017-05-18T00:27:27.313Z,5.32
2017-05-18T00:29:56.208Z,4.76
2017-05-18T00:32:23.793Z,4.74
2017-05-18T00:34:51.954Z,4.88
2017-05-18T00:37:20.293Z,5.38
2017-05-18T00:39:47.036Z,4.74
2017-05-18T00:42:15.174Z,4.78
2017-05-18T00:44:43.296Z,4.88
2017-05-18T00:47:10.044Z,5.02
2017-05-18T00:49:36.804Z,5.12
2017-05-18T00:52:04.061Z,4.54
2017-05-18T00:54:30.832Z,5.12
2017-05-18T00:56:57.596Z,4.02
2017-05-18T00:59:24.687Z,5.18
2017-05-18T01:01:51.490Z,4.82
2017-05-18T01:04:18.238Z,4.34
2017-05-18T01:06:46.977Z,5.00
2017-05-18T01:09:13.727Z,4.72
2017-05-18T01:11:40.491Z,5.46
2017-05-18T01:14:07.616Z,4.34
2017-05-18T01:16:34.369Z,4.90
2017-05-18T01:19:01.124Z,4.62
2017-05-18T01:21:28.406Z,5.58
2017-05-18T01:23:56.287Z,5.18
2017-05-18T01:26:24.535Z,4.62
2017-05-18T01:28:52.534Z,4.60
2017-05-18T01:31:19.335Z,5.44
2017-05-18T01:33:46.170Z,4.90
2017-05-18T01:36:13.825Z,4.90
2017-05-18T01:38:40.581Z,4.92
2017-05-18T01:41:07.690Z,5.22
2017-05-18T01:43:36.524Z,4.84
2017-05-18T01:46:04.045Z,4.52
2017-05-18T01:48:31.674Z,4.86
2017-05-18T01:50:58.924Z,5.28
2017-05-18T01:53:25.689Z,4.50
2017-05-18T01:55:52.442Z,4.70
2017-05-18T01:58:20.883Z,4.64
2017-05-18T02:00:47.631Z,4.88
2017-05-18T02:03:14.393Z,5.62
2017-05-18T02:05:41.618Z,4.76
2017-05-18T02:08:08.379Z,4.16
2017-05-18T02:10:35.149Z,4.92
2017-05-18T02:13:02.452Z,5.75
2017-05-18T02:15:31.342Z,4.56
2017-05-18T02:17:58.095Z,4.50
2017-05-18T02:20:25.324Z,5.38
2017-05-18T02:22:53.819Z,5.48
2017-05-18T02:25:21.531Z,6.16
2017-05-18T02:27:49.776Z,5.86
2017-05-18T02:30:17.030Z,5.40
2017-05-18T02:32:43.781Z,4.56
2017-05-18T02:35:12.117Z,5.23
2017-05-18T02:37:40.675Z,5.22
2017-05-18T02:40:08.453Z,5.62
2017-05-18T02:42:36.545Z,5.15
2017-05-18T02:45:03.894Z,5.54
2017-05-18T02:47:33.176Z,5.24
2017-05-18T02:50:00.361Z,5.53
2017-05-18T02:52:27.110Z,5.76
2017-05-18T02:54:54.419Z,5.67
2017-05-18T02:57:21.782Z,4.50
2017-05-18T02:59:48.578Z,5.30
2017-05-18T03:02:15.360Z,5.86
2017-05-18T03:04:42.705Z,4.98
2017-05-18T03:07:10.395Z,5.50
2017-05-18T03:09:39.013Z,5.07
2017-05-18T03:12:06.097Z,5.90
2017-05-18T03:14:33.368Z,5.58
2017-05-18T03:17:00.150Z,4.96
2017-05-18T03:19:28.946Z,4.52
2017-05-18T03:21:56.324Z,5.25
2017-05-18T03:24:23.084Z,5.25
2017-05-18T03:26:50.290Z,5.28
2017-05-18T03:29:17.048Z,5.23
2017-05-18T03:31:44.568Z,5.38
2017-05-18T03:34:12.595Z,5.34
2017-05-18T03:36:40.235Z,5.03
2017-05-18T03:39:08.550Z,5.78
2017-05-18T03:41:35.707Z,5.80
2017-05-18T03:44:03.205Z,4.72
2017-05-18T03:46:29.968Z,5.48
2017-05-18T03:48:57.061Z,5.30
2017-05-18T03:51:23.804Z,4.92
2017-05-18T03:53:50.544Z,5.20
2017-05-18T03:56:17.674Z,5.30
2017-05-18T03:58:44.455Z,5.60
2017-05-18T04:01:11.230Z,5.70
2017-05-18T04:03:39.685Z,4.70
2017-05-18T04:06:06.445Z,6.17
2017-05-18T04:08:33.205Z,5.70
2017-05-18T04:11:00.370Z,5.38
2017-05-18T04:13:27.818Z,6.24
2017-05-18T04:15:55.758Z,5.72
2017-05-18T04:18:24.125Z,5.50
2017-05-18T04:20:51.225Z,5.10
2017-05-18T04:23:18.873Z,4.72
2017-05-18T04:25:48.162Z,5.12
2017-05-18T04:28:14.922Z,4.86
2017-05-18T04:30:42.681Z,5.25
2017-05-18T04:33:09.855Z,5.02
2017-05-18T04:35:36.632Z,5.46
2017-05-18T04:38:03.429Z,4.80
2017-05-18T04:40:30.530Z,5.10
2017-05-18T04:42:58.242Z,4.56
2017-05-18T04:45:25.014Z,5.20
2017-05-18T04:47:52.056Z,5.48
2017-05-18T04:50:18.809Z,5.12
2017-05-18T04:52:46.497Z,4.88
2017-05-18T04:55:14.410Z,4.58
2017-05-18T04:57:41.502Z,5.30
2017-05-18T05:00:08.790Z,4.60
2017-05-18T05:02:35.981Z,4.90
2017-05-18T05:05:03.540Z,5.46
2017-05-18T05:07:30.344Z,5.22
2017-05-18T05:09:58.491Z,4.80
2017-05-18T05:12:26.242Z,5.24
2017-05-18T05:14:52.992Z,5.08
2017-05-18T05:17:20.141Z,4.50
2017-05-18T05:19:49.096Z,5.30
2017-05-18T05:22:15.835Z,5.00
2017-05-18T05:24:43.615Z,5.12
2017-05-18T05:27:10.371Z,4.68
2017-05-18T05:29:37.133Z,5.02
2017-05-18T05:32:04.365Z,5.40
2017-05-18T05:34:32.352Z,4.50
2017-05-18T05:36:59.715Z,5.60
2017-05-18T05:39:27.262Z,4.30
2017-05-18T05:41:54.064Z,4.22
2017-05-18T05:44:20.806Z,5.30
2017-05-18T05:46:48.173Z,4.44
2017-05-18T05:49:14.968Z,4.82
2017-05-18T05:51:41.731Z,4.88
2017-05-18T05:54:08.912Z,4.58
2017-05-18T05:56:35.656Z,4.28
2017-05-18T05:59:02.410Z,4.04
2017-05-18T06:01:29.645Z,4.18
2017-05-18T06:03:56.398Z,4.16
2017-05-18T06:06:23.154Z,4.10
2017-05-18T06:08:50.276Z,4.06
2017-05-18T06:11:17.029Z,4.02
2017-05-18T06:13:43.789Z,3.42
2017-05-18T06:16:10.889Z,4.90
2017-05-18T06:18:37.648Z,4.16
2017-05-18T06:21:04.395Z,3.86
2017-05-18T06:23:31.482Z,4.26
2017-05-18T06:25:58.234Z,4.20
2017-05-18T06:28:24.984Z,3.84
2017-05-18T06:30:52.021Z,3.86
2017-05-18T06:33:18.765Z,3.32
2017-05-18T06:35:45.508Z,3.66
2017-05-18T06:38:12.696Z,3.46
2017-05-18T06:40:39.449Z,3.50
2017-05-18T06:43:06.202Z,3.64
2017-05-18T06:45:33.285Z,3.66
2017-05-18T06:48:00.054Z,3.48
2017-05-18T06:50:26.807Z,2.88
2017-05-18T06:52:53.907Z,2.40
2017-05-18T06:55:20.661Z,2.50
2017-05-18T06:57:47.398Z,2.50
2017-05-18T07:00:14.622Z,2.88
2017-05-18T07:02:41.377Z,3.80
2017-05-18T07:05:08.129Z,3.34
2017-05-18T07:07:35.203Z,3.04
2017-05-18T07:10:01.952Z,3.48
2017-05-18T07:12:28.718Z,3.08
2017-05-18T07:14:56.029Z,2.98
2017-05-18T07:17:22.786Z,3.96
2017-05-18T07:19:49.549Z,3.40
2017-05-18T07:22:16.829Z,3.40
2017-05-18T07:24:43.568Z,3.74
2017-05-18T07:27:10.381Z,3.72
2017-05-18T07:29:37.414Z,3.30
2017-05-18T07:32:04.157Z,3.54
2017-05-18T07:34:30.905Z,3.72
2017-05-18T07:36:58.026Z,3.80
2017-05-18T07:39:24.781Z,4.20
2017-05-18T07:41:51.537Z,3.78
2017-05-18T07:44:18.865Z,3.58
2017-05-18T07:46:45.628Z,4.26
2017-05-18T07:49:12.385Z,3.94
2017-05-18T07:51:40.208Z,4.48
2017-05-18T07:54:06.962Z,4.30
2017-05-18T07:56:33.713Z,4.28
2017-05-18T07:59:00.766Z,4.28
2017-05-18T08:01:27.521Z,4.40
2017-05-18T08:03:54.279Z,4.60
2017-05-18T08:06:21.324Z,4.40
2017-05-18T08:08:48.069Z,5.54
2017-05-18T08:11:14.818Z,4.90
2017-05-18T08:13:41.853Z,5.18
2017-05-18T08:16:08.634Z,3.96
2017-05-18T08:18:35.381Z,4.82
2017-05-18T08:21:02.459Z,4.86
2017-05-18T08:23:29.197Z,4.06
2017-05-18T08:25:55.946Z,5.18
2017-05-18T08:28:23.115Z,4.10
2017-05-18T08:30:49.860Z,4.32
2017-05-18T08:33:16.595Z,4.70
2017-05-18T08:35:43.629Z,3.88
2017-05-18T08:38:10.407Z,4.46
2017-05-18T08:40:37.153Z,4.78
2017-05-18T08:43:04.489Z,4.48
2017-05-18T08:45:31.253Z,4.80
2017-05-18T08:47:58.019Z,4.62
2017-05-18T08:50:25.298Z,4.86
2017-05-18T08:52:52.040Z,5.18
2017-05-18T08:55:18.813Z,5.12
2017-05-18T08:57:45.987Z,5.14
2017-05-18T09:00:12.733Z,4.00
2017-05-18T09:02:39.478Z,4.02
2017-05-18T09:05:06.505Z,3.18
2017-05-18T09:07:33.264Z,4.16
2017-05-18T09:10:00.022Z,4.12
2017-05-18T09:12:27.313Z,4.56
2017-05-18T09:14:54.067Z,4.42
2017-05-18T09:17:20.828Z,5.30
2017-05-18T09:19:48.008Z,4.86
2017-05-18T09:22:14.752Z,5.68
2017-05-18T09:24:41.506Z,6.62
2017-05-18T09:27:08.981Z,6.70
2017-05-18T09:29:35.812Z,6.42
2017-05-18T09:32:02.581Z,7.98
2017-05-18T09:34:29.666Z,9.14
2017-05-18T09:36:56.420Z,10.02
2017-05-18T09:39:23.174Z,11.58
2017-05-18T09:41:50.207Z,10.34
2017-05-18T09:44:16.964Z,10.32
2017-05-18T09:46:43.728Z,10.10
2017-05-18T09:49:11.429Z,8.96
2017-05-18T09:51:38.195Z,9.60
2017-05-18T10:05:24.294Z,13.62
2017-05-18T10:07:52.623Z,12.50
2017-05-18T10:10:20.128Z,14.26
2017-05-18T10:12:48.709Z,14.76
2017-05-18T10:15:15.473Z,15.16
2017-05-18T10:17:42.236Z,18.68
2017-05-18T10:20:10.903Z,15.64
2017-05-18T10:22:37.661Z,14.30
2017-05-18T10:25:05.681Z,11.98
2017-05-18T10:27:32.996Z,13.26
2017-05-18T10:29:59.765Z,12.00
2017-05-18T10:32:26.856Z,12.04
2017-05-18T10:34:53.923Z,12.70
2017-05-18T10:37:21.069Z,13.54
2017-05-18T10:39:47.835Z,14.06
2017-05-18T10:42:15.110Z,14.20
2017-05-18T10:44:42.716Z,14.40
2017-05-18T10:47:09.473Z,15.68
2017-05-18T10:49:36.516Z,15.28
2017-05-18T10:52:03.848Z,16.42
2017-05-18T10:54:30.639Z,16.66
2017-05-18T10:56:58.049Z,14.92
2017-05-18T10:59:25.318Z,12.78
2017-05-18T11:01:52.069Z,12.68
2017-05-18T11:04:19.485Z,14.70
2017-05-18T11:06:48.379Z,13.82
2017-05-18T11:09:15.182Z,15.54
2017-05-18T11:11:42.539Z,13.48
2017-05-18T11:14:10.262Z,14.30
2017-05-18T11:16:37.010Z,13.78
2017-05-18T11:19:04.032Z,16.78
2017-05-18T11:21:30.790Z,17.68
2017-05-18T11:23:57.539Z,15.56
2017-05-18T11:26:24.564Z,15.40
2017-05-18T11:28:51.320Z,14.24
2017-05-18T11:31:18.076Z,12.88
2017-05-18T11:33:45.926Z,13.42
2017-05-18T11:36:12.675Z,13.28
2017-05-18T11:38:39.436Z,14.22
2017-05-18T11:41:06.492Z,17.12
2017-05-18T11:43:33.260Z,20.28
2017-05-18T11:46:00.018Z,19.44
2017-05-18T11:48:27.209Z,18.54
2017-05-18T11:50:53.969Z,19.74
2017-05-18T11:53:20.729Z,20.84
2017-05-18T11:55:48.276Z,21.76
2017-05-18T11:58:15.029Z,19.70
2017-05-18T12:00:41.791Z,21.32
2017-05-18T12:03:08.957Z,19.32
2017-05-18T12:05:35.722Z,23.88
2017-05-18T12:08:02.490Z,24.50
2017-05-18T12:10:29.672Z,24.58
2017-05-18T12:12:56.428Z,28.44
2017-05-18T12:15:23.185Z,27.34
2017-05-18T12:17:50.249Z,20.68
2017-05-18T12:20:17.004Z,24.62
2017-05-18T12:22:43.761Z,25.88
2017-05-18T12:25:10.880Z,25.08
2017-05-18T12:27:37.632Z,26.38
2017-05-18T12:30:04.405Z,26.76
2017-05-18T12:32:31.789Z,32.18
2017-05-18T12:34:58.547Z,27.26
2017-05-18T12:37:25.311Z,31.66
2017-05-18T12:39:52.539Z,28.96
2017-05-18T12:42:19.298Z,27.18
2017-05-18T12:44:46.049Z,31.66
2017-05-18T12:47:13.141Z,30.68
2017-05-18T12:49:39.906Z,30.82
2017-05-18T12:52:06.669Z,33.30
2017-05-18T12:54:33.707Z,30.32
2017-05-18T12:57:00.468Z,29.18
2017-05-18T12:59:27.240Z,27.32
2017-05-18T13:01:54.521Z,27.92
2017-05-18T13:04:21.281Z,28.44
2017-05-18T13:06:48.028Z,25.02
2017-05-18T13:09:15.355Z,26.14
2017-05-18T13:11:42.108Z,27.12
2017-05-18T13:14:08.872Z,28.50
2017-05-18T13:16:36.057Z,26.44
2017-05-18T13:19:02.808Z,25.34
2017-05-18T13:21:29.569Z,27.96
2017-05-18T13:23:57.515Z,27.76
2017-05-18T13:26:24.613Z,29.80
2017-05-18T13:28:51.364Z,29.28
2017-05-18T13:31:21.329Z,43.48
2017-05-18T13:33:50.097Z,47.28
2017-05-18T19:30:13.081Z,53.88
2017-05-18T19:52:15.542Z,51.98
2017-05-18T20:02:53.051Z,61.92
2017-05-18T20:10:42.756Z,63.82
2017-05-18T20:15:56.306Z,59.00
2017-05-18T20:18:23.047Z,61.62
2017-05-18T20:20:51.160Z,63.40
2017-05-18T20:23:23.523Z,56.67
2017-05-18T20:34:08.352Z,60.60
2017-05-18T20:36:37.680Z,62.22
2017-05-18T20:39:07.910Z,66.30
2017-05-18T20:44:19.696Z,58.12
2017-05-18T20:46:49.527Z,61.42
2017-05-18T20:57:33.350Z,68.88
2017-05-18T21:13:51.191Z,66.93
2017-05-18T21:24:40.046Z,71.38
2017-05-18T21:32:37.542Z,77.58
2017-05-18T21:37:52.299Z,67.23
2017-05-18T22:24:18.984Z,86.70
2017-05-18T22:26:49.109Z,80.95
2017-05-18T23:27:06.035Z,186.57
